Birnin Kebbi, Nigeria
Current Conditions -  °F | °C
As of 11:00 PM on Sunday 23 Nov 2014 (Local Time) from DRRN Reporting Station
Sand / Dust Storm Sand / Dust Storm  
Wind Chill: 77°   Ceiling: Unl
Heat Index: 77°   Visibility: 2.8mi
Dew Point: 32°   Wind: 5mph
Humidity: 19%   Direction: 50°NE
Pressure: 29.94"   Gusts: NA
Location:  12.46°N, 4.19°E
Report Text: DRRN 232200Z 05004KT 4500 DU NSC 25/00 Q1014 NOSIG
Loading
Personal Weather Stations






























Interactive Weather Map New forecast layout! Learn more

10-Day Weather Forecast

Advertisements
Track Severe Weather on mobile